sensor_id;sensor_type;location;lat;lon;timestamp;temperature;humidity
46091;DHT22;31826;53.572;10.170;2024-02-28T00:02:10;3.70;99.90
46091;DHT22;31826;53.572;10.170;2024-02-28T00:04:36;3.70;99.90
46091;DHT22;31826;53.572;10.170;2024-02-28T00:07:02;3.80;99.90
46091;DHT22;31826;53.572;10.170;2024-02-28T00:09:27;3.80;99.90
46091;DHT22;31826;53.572;10.170;2024-02-28T00:11:53;3.80;99.90
46091;DHT22;31826;53.572;10.170;2024-02-28T00:14:19;3.70;99.90
46091;DHT22;31826;53.572;10.170;2024-02-28T00:16:45;3.70;99.90
46091;DHT22;31826;53.572;10.170;2024-02-28T00:19:12;3.70;99.90
46091;DHT22;31826;53.572;10.170;2024-02-28T00:21:38;3.60;99.90
46091;DHT22;31826;53.572;10.170;2024-02-28T00:24:05;3.60;99.90
46091;DHT22;31826;53.572;10.170;2024-02-28T00:26:31;3.50;99.90
46091;DHT22;31826;53.572;10.170;2024-02-28T00:28:57;3.60;99.90
46091;DHT22;31826;53.572;10.170;2024-02-28T00:31:23;3.50;99.90
46091;DHT22;31826;53.572;10.170;2024-02-28T00:33:48;3.50;99.90
46091;DHT22;31826;53.572;10.170;2024-02-28T00:36:14;3.40;99.90
46091;DHT22;31826;53.572;10.170;2024-02-28T00:38:42;3.40;99.90
46091;DHT22;31826;53.572;10.170;2024-02-28T00:41:08;3.40;99.90
46091;DHT22;31826;53.572;10.170;2024-02-28T00:43:34;3.40;99.90
46091;DHT22;31826;53.572;10.170;2024-02-28T00:46:00;3.40;99.90
46091;DHT22;31826;53.572;10.170;2024-02-28T00:48:25;3.40;99.90
46091;DHT22;31826;53.572;10.170;2024-02-28T00:50:52;3.30;99.90
46091;DHT22;31826;53.572;10.170;2024-02-28T00:53:19;3.30;99.90
46091;DHT22;31826;53.572;10.170;2024-02-28T00:55:45;3.30;99.90
46091;DHT22;31826;53.572;10.170;2024-02-28T00:58:11;3.20;99.90
46091;DHT22;31826;53.572;10.170;2024-02-28T01:00:36;3.20;99.90
46091;DHT22;31826;53.572;10.170;2024-02-28T01:03:02;3.30;99.90
46091;DHT22;31826;53.572;10.170;2024-02-28T01:05:34;3.30;99.90
46091;DHT22;31826;53.572;10.170;2024-02-28T01:08:00;3.20;99.90
46091;DHT22;31826;53.572;10.170;2024-02-28T01:10:26;3.20;99.90
46091;DHT22;31826;53.572;10.170;2024-02-28T01:12:51;3.20;99.90
46091;DHT22;31826;53.572;10.170;2024-02-28T01:15:17;3.20;99.90
46091;DHT22;31826;53.572;10.170;2024-02-28T01:17:43;3.10;99.90
46091;DHT22;31826;53.572;10.170;2024-02-28T01:20:09;3.10;99.90
46091;DHT22;31826;53.572;10.170;2024-02-28T01:22:35;3.10;99.90
46091;DHT22;31826;53.572;10.170;2024-02-28T01:25:03;3.10;99.90
46091;DHT22;31826;53.572;10.170;2024-02-28T01:27:28;3.10;99.90
46091;DHT22;31826;53.572;10.170;2024-02-28T01:29:54;3.10;99.90
46091;DHT22;31826;53.572;10.170;2024-02-28T01:32:20;3.00;99.90
46091;DHT22;31826;53.572;10.170;2024-02-28T01:34:46;3.10;99.90
46091;DHT22;31826;53.572;10.170;2024-02-28T01:37:12;3.10;99.90
46091;DHT22;31826;53.572;10.170;2024-02-28T01:39:38;3.10;99.90
46091;DHT22;31826;53.572;10.170;2024-02-28T01:42:03;3.00;99.90
46091;DHT22;31826;53.572;10.170;2024-02-28T01:44:29;3.10;99.90
46091;DHT22;31826;53.572;10.170;2024-02-28T01:46:55;3.00;99.90
46091;DHT22;31826;53.572;10.170;2024-02-28T01:49:23;3.10;99.90
46091;DHT22;31826;53.572;10.170;2024-02-28T01:51:49;3.00;99.90
46091;DHT22;31826;53.572;10.170;2024-02-28T01:54:16;3.00;99.90
46091;DHT22;31826;53.572;10.170;2024-02-28T01:56:43;3.00;99.90
46091;DHT22;31826;53.572;10.170;2024-02-28T01:59:10;2.90;99.90
46091;DHT22;31826;53.572;10.170;2024-02-28T02:01:37;2.90;99.90
46091;DHT22;31826;53.572;10.170;2024-02-28T02:04:03;2.90;99.90
46091;DHT22;31826;53.572;10.170;2024-02-28T02:06:30;2.90;99.90
46091;DHT22;31826;53.572;10.170;2024-02-28T02:08:56;2.90;99.90
46091;DHT22;31826;53.572;10.170;2024-02-28T02:11:23;2.90;99.90
46091;DHT22;31826;53.572;10.170;2024-02-28T02:13:53;2.90;99.90
46091;DHT22;31826;53.572;10.170;2024-02-28T02:16:20;2.90;99.90
46091;DHT22;31826;53.572;10.170;2024-02-28T02:18:51;2.80;99.90
46091;DHT22;31826;53.572;10.170;2024-02-28T02:21:24;2.80;99.90
46091;DHT22;31826;53.572;10.170;2024-02-28T02:23:52;2.70;99.90
46091;DHT22;31826;53.572;10.170;2024-02-28T02:26:17;2.70;99.90
46091;DHT22;31826;53.572;10.170;2024-02-28T02:28:43;2.70;99.90
46091;DHT22;31826;53.572;10.170;2024-02-28T02:31:11;2.90;99.90
46091;DHT22;31826;53.572;10.170;2024-02-28T02:33:37;2.90;99.90
46091;DHT22;31826;53.572;10.170;2024-02-28T02:36:02;2.80;99.90
46091;DHT22;31826;53.572;10.170;2024-02-28T02:38:28;2.90;99.90
46091;DHT22;31826;53.572;10.170;2024-02-28T02:40:54;2.90;99.90
46091;DHT22;31826;53.572;10.170;2024-02-28T02:43:20;2.90;99.90
46091;DHT22;31826;53.572;10.170;2024-02-28T02:45:45;2.90;99.90
46091;DHT22;31826;53.572;10.170;2024-02-28T02:48:11;2.80;99.90
46091;DHT22;31826;53.572;10.170;2024-02-28T02:50:37;2.90;99.90
46091;DHT22;31826;53.572;10.170;2024-02-28T02:53:03;2.90;99.90
46091;DHT22;31826;53.572;10.170;2024-02-28T02:55:29;2.80;99.90
46091;DHT22;31826;53.572;10.170;2024-02-28T02:57:55;2.80;99.90
46091;DHT22;31826;53.572;10.170;2024-02-28T03:00:21;2.80;99.90
46091;DHT22;31826;53.572;10.170;2024-02-28T03:02:47;2.90;99.90
46091;DHT22;31826;53.572;10.170;2024-02-28T03:05:13;2.80;99.90
46091;DHT22;31826;53.572;10.170;2024-02-28T03:07:39;2.80;99.90
46091;DHT22;31826;53.572;10.170;2024-02-28T03:10:05;2.90;99.90
46091;DHT22;31826;53.572;10.170;2024-02-28T03:12:31;3.00;99.90
46091;DHT22;31826;53.572;10.170;2024-02-28T03:14:56;3.00;99.90
46091;DHT22;31826;53.572;10.170;2024-02-28T03:17:22;2.90;99.90
46091;DHT22;31826;53.572;10.170;2024-02-28T03:19:48;3.00;99.90
46091;DHT22;31826;53.572;10.170;2024-02-28T03:22:14;3.00;99.90
46091;DHT22;31826;53.572;10.170;2024-02-28T03:24:39;3.00;99.90
46091;DHT22;31826;53.572;10.170;2024-02-28T03:27:05;3.00;99.90
46091;DHT22;31826;53.572;10.170;2024-02-28T03:29:31;3.00;99.90
46091;DHT22;31826;53.572;10.170;2024-02-28T03:31:58;3.10;99.90
46091;DHT22;31826;53.572;10.170;2024-02-28T03:34:24;3.20;99.90
46091;DHT22;31826;53.572;10.170;2024-02-28T03:36:50;3.10;99.90
46091;DHT22;31826;53.572;10.170;2024-02-28T03:39:16;3.10;99.90
46091;DHT22;31826;53.572;10.170;2024-02-28T03:41:42;3.10;99.90
46091;DHT22;31826;53.572;10.170;2024-02-28T03:44:08;3.10;99.90
46091;DHT22;31826;53.572;10.170;2024-02-28T03:46:33;3.20;99.90
46091;DHT22;31826;53.572;10.170;2024-02-28T03:48:59;3.10;99.90
46091;DHT22;31826;53.572;10.170;2024-02-28T03:51:25;3.10;99.90
46091;DHT22;31826;53.572;10.170;2024-02-28T03:53:51;3.10;99.90
46091;DHT22;31826;53.572;10.170;2024-02-28T03:56:26;3.10;99.90
46091;DHT22;31826;53.572;10.170;2024-02-28T03:58:52;3.00;99.90
46091;DHT22;31826;53.572;10.170;2024-02-28T04:01:19;2.90;99.90
46091;DHT22;31826;53.572;10.170;2024-02-28T04:03:44;2.90;99.90
46091;DHT22;31826;53.572;10.170;2024-02-28T04:06:11;2.90;99.90
46091;DHT22;31826;53.572;10.170;2024-02-28T04:08:37;2.90;99.90
46091;DHT22;31826;53.572;10.170;2024-02-28T04:11:03;2.80;99.90
46091;DHT22;31826;53.572;10.170;2024-02-28T04:13:28;2.80;99.90
46091;DHT22;31826;53.572;10.170;2024-02-28T04:15:54;2.80;99.90
46091;DHT22;31826;53.572;10.170;2024-02-28T04:18:20;2.80;99.90
46091;DHT22;31826;53.572;10.170;2024-02-28T04:20:45;2.80;99.90
46091;DHT22;31826;53.572;10.170;2024-02-28T04:23:11;2.80;99.90
46091;DHT22;31826;53.572;10.170;2024-02-28T04:25:36;2.80;99.90
46091;DHT22;31826;53.572;10.170;2024-02-28T04:28:06;2.90;99.90
46091;DHT22;31826;53.572;10.170;2024-02-28T04:30:32;2.80;99.90
46091;DHT22;31826;53.572;10.170;2024-02-28T04:32:58;2.80;99.90
46091;DHT22;31826;53.572;10.170;2024-02-28T04:35:23;2.80;99.90
46091;DHT22;31826;53.572;10.170;2024-02-28T04:37:49;2.80;99.90
46091;DHT22;31826;53.572;10.170;2024-02-28T04:40:15;2.80;99.90
46091;DHT22;31826;53.572;10.170;2024-02-28T04:42:41;2.80;99.90
46091;DHT22;31826;53.572;10.170;2024-02-28T04:45:08;2.80;99.90
46091;DHT22;31826;53.572;10.170;2024-02-28T04:47:34;2.80;99.90
46091;DHT22;31826;53.572;10.170;2024-02-28T04:50:00;2.80;99.90
46091;DHT22;31826;53.572;10.170;2024-02-28T04:52:26;2.70;99.90
46091;DHT22;31826;53.572;10.170;2024-02-28T04:54:52;2.80;99.90
46091;DHT22;31826;53.572;10.170;2024-02-28T04:57:19;2.80;99.90
46091;DHT22;31826;53.572;10.170;2024-02-28T04:59:45;2.90;99.90
46091;DHT22;31826;53.572;10.170;2024-02-28T05:02:11;2.80;99.90
46091;DHT22;31826;53.572;10.170;2024-02-28T05:04:36;2.80;99.90
46091;DHT22;31826;53.572;10.170;2024-02-28T05:07:02;2.80;99.90
46091;DHT22;31826;53.572;10.170;2024-02-28T05:09:28;2.70;99.90
46091;DHT22;31826;53.572;10.170;2024-02-28T05:11:54;2.70;99.90
46091;DHT22;31826;53.572;10.170;2024-02-28T05:14:19;2.80;99.90
46091;DHT22;31826;53.572;10.170;2024-02-28T05:16:47;2.80;99.90
46091;DHT22;31826;53.572;10.170;2024-02-28T05:19:13;2.80;99.90
46091;DHT22;31826;53.572;10.170;2024-02-28T05:21:42;2.80;99.90
46091;DHT22;31826;53.572;10.170;2024-02-28T05:24:08;2.80;99.90
46091;DHT22;31826;53.572;10.170;2024-02-28T05:26:37;2.80;99.90
46091;DHT22;31826;53.572;10.170;2024-02-28T05:29:04;2.80;99.90
46091;DHT22;31826;53.572;10.170;2024-02-28T05:31:31;2.80;99.90
46091;DHT22;31826;53.572;10.170;2024-02-28T05:34:00;2.70;99.90
46091;DHT22;31826;53.572;10.170;2024-02-28T05:36:28;2.70;99.90
46091;DHT22;31826;53.572;10.170;2024-02-28T05:38:55;2.70;99.90
46091;DHT22;31826;53.572;10.170;2024-02-28T05:41:21;2.70;99.90
46091;DHT22;31826;53.572;10.170;2024-02-28T05:43:48;2.70;99.90
46091;DHT22;31826;53.572;10.170;2024-02-28T05:46:14;2.70;99.90
46091;DHT22;31826;53.572;10.170;2024-02-28T05:48:41;2.80;99.90
46091;DHT22;31826;53.572;10.170;2024-02-28T05:51:07;2.80;99.90
46091;DHT22;31826;53.572;10.170;2024-02-28T05:53:33;2.70;99.90
46091;DHT22;31826;53.572;10.170;2024-02-28T05:56:08;2.70;99.90
46091;DHT22;31826;53.572;10.170;2024-02-28T05:58:43;2.60;99.90
46091;DHT22;31826;53.572;10.170;2024-02-28T06:01:10;2.70;99.90
46091;DHT22;31826;53.572;10.170;2024-02-28T06:03:39;2.80;99.90
46091;DHT22;31826;53.572;10.170;2024-02-28T06:06:04;2.70;99.90
46091;DHT22;31826;53.572;10.170;2024-02-28T06:08:48;2.60;99.90
46091;DHT22;31826;53.572;10.170;2024-02-28T06:11:14;2.70;99.90
46091;DHT22;31826;53.572;10.170;2024-02-28T06:13:41;2.60;99.90
46091;DHT22;31826;53.572;10.170;2024-02-28T06:16:06;2.60;99.90
46091;DHT22;31826;53.572;10.170;2024-02-28T06:18:32;2.60;99.90
46091;DHT22;31826;53.572;10.170;2024-02-28T06:20:59;2.60;99.90
46091;DHT22;31826;53.572;10.170;2024-02-28T06:23:25;2.60;99.90
46091;DHT22;31826;53.572;10.170;2024-02-28T06:25:51;2.60;99.90
46091;DHT22;31826;53.572;10.170;2024-02-28T06:28:17;2.60;99.90
46091;DHT22;31826;53.572;10.170;2024-02-28T06:30:43;2.60;99.90
46091;DHT22;31826;53.572;10.170;2024-02-28T06:33:13;2.60;99.90
46091;DHT22;31826;53.572;10.170;2024-02-28T06:35:38;2.60;99.90
46091;DHT22;31826;53.572;10.170;2024-02-28T06:38:04;2.60;99.90
46091;DHT22;31826;53.572;10.170;2024-02-28T06:40:30;2.60;99.90
46091;DHT22;31826;53.572;10.170;2024-02-28T06:42:55;2.60;99.90
46091;DHT22;31826;53.572;10.170;2024-02-28T06:45:21;2.60;99.90
46091;DHT22;31826;53.572;10.170;2024-02-28T06:47:47;2.60;99.90
46091;DHT22;31826;53.572;10.170;2024-02-28T06:50:14;2.60;99.90
46091;DHT22;31826;53.572;10.170;2024-02-28T06:52:40;2.60;99.90
46091;DHT22;31826;53.572;10.170;2024-02-28T06:55:06;2.60;99.90
46091;DHT22;31826;53.572;10.170;2024-02-28T06:57:39;2.60;99.90
46091;DHT22;31826;53.572;10.170;2024-02-28T07:00:07;2.60;99.90
46091;DHT22;31826;53.572;10.170;2024-02-28T07:02:40;2.60;99.90
46091;DHT22;31826;53.572;10.170;2024-02-28T07:05:06;2.60;99.90
46091;DHT22;31826;53.572;10.170;2024-02-28T07:07:32;2.70;99.90
46091;DHT22;31826;53.572;10.170;2024-02-28T07:09:58;2.70;99.90
46091;DHT22;31826;53.572;10.170;2024-02-28T07:12:24;2.70;99.90
46091;DHT22;31826;53.572;10.170;2024-02-28T07:14:51;2.70;99.90
46091;DHT22;31826;53.572;10.170;2024-02-28T07:17:16;2.70;99.90
46091;DHT22;31826;53.572;10.170;2024-02-28T07:19:42;2.70;99.90
46091;DHT22;31826;53.572;10.170;2024-02-28T07:22:08;2.70;99.90
46091;DHT22;31826;53.572;10.170;2024-02-28T07:24:33;2.70;99.90
46091;DHT22;31826;53.572;10.170;2024-02-28T07:26:59;2.80;99.90
46091;DHT22;31826;53.572;10.170;2024-02-28T07:29:25;2.80;99.90
46091;DHT22;31826;53.572;10.170;2024-02-28T07:31:50;2.80;99.90
46091;DHT22;31826;53.572;10.170;2024-02-28T07:34:16;2.80;99.90
46091;DHT22;31826;53.572;10.170;2024-02-28T07:36:42;2.80;99.90
46091;DHT22;31826;53.572;10.170;2024-02-28T07:39:07;2.80;99.90
46091;DHT22;31826;53.572;10.170;2024-02-28T07:41:41;2.80;99.90
46091;DHT22;31826;53.572;10.170;2024-02-28T07:44:07;2.90;99.90
46091;DHT22;31826;53.572;10.170;2024-02-28T07:46:34;2.90;99.90
46091;DHT22;31826;53.572;10.170;2024-02-28T07:49:00;2.90;99.90
46091;DHT22;31826;53.572;10.170;2024-02-28T07:51:26;3.00;99.90
46091;DHT22;31826;53.572;10.170;2024-02-28T07:53:52;3.00;99.90
46091;DHT22;31826;53.572;10.170;2024-02-28T07:56:18;3.00;99.90
46091;DHT22;31826;53.572;10.170;2024-02-28T07:58:45;3.10;99.90
46091;DHT22;31826;53.572;10.170;2024-02-28T08:01:11;3.10;99.90
46091;DHT22;31826;53.572;10.170;2024-02-28T08:03:37;3.20;99.90
46091;DHT22;31826;53.572;10.170;2024-02-28T08:06:03;3.30;99.90
46091;DHT22;31826;53.572;10.170;2024-02-28T08:08:29;3.40;99.90
46091;DHT22;31826;53.572;10.170;2024-02-28T08:10:54;3.30;99.90
46091;DHT22;31826;53.572;10.170;2024-02-28T08:13:20;3.50;99.90
46091;DHT22;31826;53.572;10.170;2024-02-28T08:15:46;3.50;99.90
46091;DHT22;31826;53.572;10.170;2024-02-28T08:18:12;3.40;99.90
46091;DHT22;31826;53.572;10.170;2024-02-28T08:20:38;3.30;99.90
46091;DHT22;31826;53.572;10.170;2024-02-28T08:23:05;3.40;99.90
46091;DHT22;31826;53.572;10.170;2024-02-28T08:25:31;3.40;99.90
46091;DHT22;31826;53.572;10.170;2024-02-28T08:27:57;3.40;99.90
46091;DHT22;31826;53.572;10.170;2024-02-28T08:30:22;3.40;99.90
46091;DHT22;31826;53.572;10.170;2024-02-28T08:32:48;3.50;99.90
46091;DHT22;31826;53.572;10.170;2024-02-28T08:35:14;3.50;99.90
46091;DHT22;31826;53.572;10.170;2024-02-28T08:37:40;3.60;99.90
46091;DHT22;31826;53.572;10.170;2024-02-28T08:40:07;3.70;99.90
46091;DHT22;31826;53.572;10.170;2024-02-28T08:42:33;3.70;99.90
46091;DHT22;31826;53.572;10.170;2024-02-28T08:45:00;3.80;99.90
46091;DHT22;31826;53.572;10.170;2024-02-28T08:47:26;3.80;99.90
46091;DHT22;31826;53.572;10.170;2024-02-28T08:49:53;3.90;99.90
46091;DHT22;31826;53.572;10.170;2024-02-28T08:52:20;3.90;99.90
46091;DHT22;31826;53.572;10.170;2024-02-28T08:54:46;4.00;99.90
46091;DHT22;31826;53.572;10.170;2024-02-28T08:57:12;4.00;99.90
46091;DHT22;31826;53.572;10.170;2024-02-28T08:59:37;4.20;99.90
46091;DHT22;31826;53.572;10.170;2024-02-28T09:02:03;4.20;99.90
46091;DHT22;31826;53.572;10.170;2024-02-28T09:04:29;4.50;99.90
46091;DHT22;31826;53.572;10.170;2024-02-28T09:06:55;4.70;99.90
46091;DHT22;31826;53.572;10.170;2024-02-28T09:09:20;4.80;99.90
46091;DHT22;31826;53.572;10.170;2024-02-28T09:11:46;4.70;99.90
46091;DHT22;31826;53.572;10.170;2024-02-28T09:14:12;4.70;99.90
46091;DHT22;31826;53.572;10.170;2024-02-28T09:16:37;4.80;99.90
46091;DHT22;31826;53.572;10.170;2024-02-28T09:19:04;4.80;99.90
46091;DHT22;31826;53.572;10.170;2024-02-28T09:21:30;4.90;99.90
46091;DHT22;31826;53.572;10.170;2024-02-28T09:23:55;5.00;99.90
46091;DHT22;31826;53.572;10.170;2024-02-28T09:26:21;5.10;99.90
46091;DHT22;31826;53.572;10.170;2024-02-28T09:28:47;5.10;99.90
46091;DHT22;31826;53.572;10.170;2024-02-28T09:31:12;5.40;99.90
46091;DHT22;31826;53.572;10.170;2024-02-28T09:33:38;5.50;99.90
46091;DHT22;31826;53.572;10.170;2024-02-28T09:36:04;5.70;99.90
46091;DHT22;31826;53.572;10.170;2024-02-28T09:38:30;5.80;99.90
46091;DHT22;31826;53.572;10.170;2024-02-28T09:40:58;5.80;99.90
46091;DHT22;31826;53.572;10.170;2024-02-28T09:43:31;5.80;99.90
46091;DHT22;31826;53.572;10.170;2024-02-28T09:46:00;5.80;99.90
46091;DHT22;31826;53.572;10.170;2024-02-28T09:48:29;5.80;99.90
46091;DHT22;31826;53.572;10.170;2024-02-28T09:50:56;5.80;99.90
46091;DHT22;31826;53.572;10.170;2024-02-28T09:53:22;5.90;99.90
46091;DHT22;31826;53.572;10.170;2024-02-28T09:55:49;5.80;99.90
46091;DHT22;31826;53.572;10.170;2024-02-28T09:58:16;5.90;99.90
46091;DHT22;31826;53.572;10.170;2024-02-28T10:00:43;5.90;99.90
46091;DHT22;31826;53.572;10.170;2024-02-28T10:03:13;6.00;99.90
46091;DHT22;31826;53.572;10.170;2024-02-28T10:05:39;6.10;99.90
46091;DHT22;31826;53.572;10.170;2024-02-28T10:08:06;6.20;99.90
46091;DHT22;31826;53.572;10.170;2024-02-28T10:10:31;6.40;99.90
46091;DHT22;31826;53.572;10.170;2024-02-28T10:12:57;6.80;99.90
46091;DHT22;31826;53.572;10.170;2024-02-28T10:15:26;7.10;99.90
46091;DHT22;31826;53.572;10.170;2024-02-28T10:17:53;7.60;99.90
46091;DHT22;31826;53.572;10.170;2024-02-28T10:20:18;7.80;99.90
46091;DHT22;31826;53.572;10.170;2024-02-28T10:22:45;7.70;99.90
46091;DHT22;31826;53.572;10.170;2024-02-28T10:25:10;7.90;99.90
46091;DHT22;31826;53.572;10.170;2024-02-28T10:27:36;8.00;99.90
46091;DHT22;31826;53.572;10.170;2024-02-28T10:30:03;8.00;99.90
46091;DHT22;31826;53.572;10.170;2024-02-28T10:32:31;7.90;99.90
46091;DHT22;31826;53.572;10.170;2024-02-28T10:34:59;8.40;99.90
46091;DHT22;31826;53.572;10.170;2024-02-28T10:37:25;8.40;99.90
46091;DHT22;31826;53.572;10.170;2024-02-28T10:39:52;8.10;99.90
46091;DHT22;31826;53.572;10.170;2024-02-28T10:42:19;8.10;99.90
46091;DHT22;31826;53.572;10.170;2024-02-28T10:44:47;8.10;99.90
46091;DHT22;31826;53.572;10.170;2024-02-28T10:47:17;8.00;99.90
46091;DHT22;31826;53.572;10.170;2024-02-28T10:49:43;8.10;99.90
46091;DHT22;31826;53.572;10.170;2024-02-28T10:52:12;8.30;99.90
46091;DHT22;31826;53.572;10.170;2024-02-28T10:54:40;8.30;99.90
46091;DHT22;31826;53.572;10.170;2024-02-28T10:57:12;8.40;99.90
46091;DHT22;31826;53.572;10.170;2024-02-28T10:59:40;8.60;99.90
46091;DHT22;31826;53.572;10.170;2024-02-28T11:02:06;9.50;99.90
46091;DHT22;31826;53.572;10.170;2024-02-28T11:04:32;10.00;99.90
46091;DHT22;31826;53.572;10.170;2024-02-28T11:06:58;9.90;99.90
46091;DHT22;31826;53.572;10.170;2024-02-28T11:09:25;9.40;99.90
46091;DHT22;31826;53.572;10.170;2024-02-28T11:11:52;8.70;99.90
46091;DHT22;31826;53.572;10.170;2024-02-28T11:14:18;8.40;99.90
46091;DHT22;31826;53.572;10.170;2024-02-28T11:16:59;8.30;99.90
46091;DHT22;31826;53.572;10.170;2024-02-28T11:19:28;8.30;99.90
46091;DHT22;31826;53.572;10.170;2024-02-28T11:21:56;8.20;99.90
46091;DHT22;31826;53.572;10.170;2024-02-28T11:24:31;8.10;99.90
46091;DHT22;31826;53.572;10.170;2024-02-28T11:26:57;8.10;99.90
46091;DHT22;31826;53.572;10.170;2024-02-28T11:29:27;8.00;99.90
46091;DHT22;31826;53.572;10.170;2024-02-28T11:31:54;8.20;99.90
46091;DHT22;31826;53.572;10.170;2024-02-28T11:34:20;8.10;99.90
46091;DHT22;31826;53.572;10.170;2024-02-28T11:36:50;7.90;99.90
46091;DHT22;31826;53.572;10.170;2024-02-28T11:39:16;7.90;99.90
46091;DHT22;31826;53.572;10.170;2024-02-28T11:41:45;7.70;99.90
46091;DHT22;31826;53.572;10.170;2024-02-28T11:44:18;7.70;99.90
46091;DHT22;31826;53.572;10.170;2024-02-28T11:46:45;7.70;99.90
46091;DHT22;31826;53.572;10.170;2024-02-28T11:49:12;7.70;99.90
46091;DHT22;31826;53.572;10.170;2024-02-28T11:51:40;7.60;99.90
46091;DHT22;31826;53.572;10.170;2024-02-28T11:54:07;7.60;99.90
46091;DHT22;31826;53.572;10.170;2024-02-28T11:56:33;7.60;99.90
46091;DHT22;31826;53.572;10.170;2024-02-28T11:58:58;7.50;99.90
46091;DHT22;31826;53.572;10.170;2024-02-28T12:01:43;7.50;99.90
46091;DHT22;31826;53.572;10.170;2024-02-28T12:04:12;7.50;99.90
46091;DHT22;31826;53.572;10.170;2024-02-28T12:06:39;7.50;99.90
46091;DHT22;31826;53.572;10.170;2024-02-28T12:09:09;7.60;99.90
46091;DHT22;31826;53.572;10.170;2024-02-28T12:11:36;7.60;99.90
46091;DHT22;31826;53.572;10.170;2024-02-28T12:14:06;7.70;99.90
46091;DHT22;31826;53.572;10.170;2024-02-28T12:16:36;7.80;99.90
46091;DHT22;31826;53.572;10.170;2024-02-28T12:19:04;7.80;99.90
46091;DHT22;31826;53.572;10.170;2024-02-28T12:21:32;7.80;99.90
46091;DHT22;31826;53.572;10.170;2024-02-28T12:23:58;7.80;99.90
46091;DHT22;31826;53.572;10.170;2024-02-28T12:26:24;7.90;99.90
46091;DHT22;31826;53.572;10.170;2024-02-28T12:28:49;7.90;99.90
46091;DHT22;31826;53.572;10.170;2024-02-28T12:31:15;7.90;99.90
46091;DHT22;31826;53.572;10.170;2024-02-28T12:33:41;7.80;99.90
46091;DHT22;31826;53.572;10.170;2024-02-28T12:36:07;7.80;99.90
46091;DHT22;31826;53.572;10.170;2024-02-28T12:38:33;7.70;99.90
46091;DHT22;31826;53.572;10.170;2024-02-28T12:40:59;7.70;99.90
46091;DHT22;31826;53.572;10.170;2024-02-28T12:43:25;7.80;99.90
46091;DHT22;31826;53.572;10.170;2024-02-28T12:45:51;7.80;99.90
46091;DHT22;31826;53.572;10.170;2024-02-28T12:48:16;7.80;99.90
46091;DHT22;31826;53.572;10.170;2024-02-28T12:50:44;7.80;99.90
46091;DHT22;31826;53.572;10.170;2024-02-28T12:53:10;7.70;99.90
46091;DHT22;31826;53.572;10.170;2024-02-28T12:55:35;7.80;99.90
46091;DHT22;31826;53.572;10.170;2024-02-28T12:58:01;7.80;99.90
46091;DHT22;31826;53.572;10.170;2024-02-28T13:00:30;7.90;99.90
46091;DHT22;31826;53.572;10.170;2024-02-28T13:02:55;7.90;99.90
46091;DHT22;31826;53.572;10.170;2024-02-28T13:05:21;8.00;99.90
46091;DHT22;31826;53.572;10.170;2024-02-28T13:07:47;8.00;99.90
46091;DHT22;31826;53.572;10.170;2024-02-28T13:10:12;7.80;99.90
46091;DHT22;31826;53.572;10.170;2024-02-28T13:12:38;7.80;99.90
46091;DHT22;31826;53.572;10.170;2024-02-28T13:15:05;7.80;99.90
46091;DHT22;31826;53.572;10.170;2024-02-28T13:17:31;7.80;99.90
46091;DHT22;31826;53.572;10.170;2024-02-28T13:19:57;7.80;99.90
46091;DHT22;31826;53.572;10.170;2024-02-28T13:22:22;7.70;99.90
46091;DHT22;31826;53.572;10.170;2024-02-28T13:24:48;7.70;99.90
46091;DHT22;31826;53.572;10.170;2024-02-28T13:27:14;7.70;99.90
46091;DHT22;31826;53.572;10.170;2024-02-28T13:29:39;7.60;99.90
46091;DHT22;31826;53.572;10.170;2024-02-28T13:32:05;7.60;99.90
46091;DHT22;31826;53.572;10.170;2024-02-28T13:34:31;7.60;99.90
46091;DHT22;31826;53.572;10.170;2024-02-28T13:36:57;7.70;99.90
46091;DHT22;31826;53.572;10.170;2024-02-28T13:39:23;7.70;99.90
46091;DHT22;31826;53.572;10.170;2024-02-28T13:41:52;7.70;99.90
46091;DHT22;31826;53.572;10.170;2024-02-28T13:44:18;7.70;99.90
46091;DHT22;31826;53.572;10.170;2024-02-28T13:46:47;7.70;99.90
46091;DHT22;31826;53.572;10.170;2024-02-28T13:49:13;7.80;99.90
46091;DHT22;31826;53.572;10.170;2024-02-28T13:51:40;7.80;99.90
46091;DHT22;31826;53.572;10.170;2024-02-28T13:54:05;7.80;99.90
46091;DHT22;31826;53.572;10.170;2024-02-28T13:56:31;7.80;99.90
46091;DHT22;31826;53.572;10.170;2024-02-28T13:58:57;7.70;99.90
46091;DHT22;31826;53.572;10.170;2024-02-28T14:01:23;7.70;99.90
46091;DHT22;31826;53.572;10.170;2024-02-28T14:03:49;7.70;99.90
46091;DHT22;31826;53.572;10.170;2024-02-28T14:06:15;7.80;99.90
46091;DHT22;31826;53.572;10.170;2024-02-28T14:08:40;7.80;99.90
46091;DHT22;31826;53.572;10.170;2024-02-28T14:11:06;7.90;99.90
46091;DHT22;31826;53.572;10.170;2024-02-28T14:13:32;7.90;99.90
46091;DHT22;31826;53.572;10.170;2024-02-28T14:15:57;7.80;99.90
46091;DHT22;31826;53.572;10.170;2024-02-28T14:18:23;7.80;99.90
46091;DHT22;31826;53.572;10.170;2024-02-28T14:20:49;7.70;99.90
46091;DHT22;31826;53.572;10.170;2024-02-28T14:23:15;7.70;99.90
46091;DHT22;31826;53.572;10.170;2024-02-28T14:25:43;7.60;99.90
46091;DHT22;31826;53.572;10.170;2024-02-28T14:28:09;7.60;99.90
46091;DHT22;31826;53.572;10.170;2024-02-28T14:30:35;7.60;99.90
46091;DHT22;31826;53.572;10.170;2024-02-28T14:33:00;7.60;99.90
46091;DHT22;31826;53.572;10.170;2024-02-28T14:35:26;7.60;99.90
46091;DHT22;31826;53.572;10.170;2024-02-28T14:37:52;7.60;99.90
46091;DHT22;31826;53.572;10.170;2024-02-28T14:40:18;7.60;99.90
46091;DHT22;31826;53.572;10.170;2024-02-28T14:42:44;7.60;99.90
46091;DHT22;31826;53.572;10.170;2024-02-28T14:45:13;7.60;99.90
46091;DHT22;31826;53.572;10.170;2024-02-28T14:47:43;7.60;99.90
46091;DHT22;31826;53.572;10.170;2024-02-28T14:50:10;7.70;99.90
46091;DHT22;31826;53.572;10.170;2024-02-28T14:52:42;7.60;99.90
46091;DHT22;31826;53.572;10.170;2024-02-28T14:55:09;7.60;99.90
46091;DHT22;31826;53.572;10.170;2024-02-28T14:57:39;7.60;99.90
46091;DHT22;31826;53.572;10.170;2024-02-28T15:00:09;7.60;99.90
46091;DHT22;31826;53.572;10.170;2024-02-28T15:02:39;7.60;99.90
46091;DHT22;31826;53.572;10.170;2024-02-28T15:05:05;7.60;99.90
46091;DHT22;31826;53.572;10.170;2024-02-28T15:07:35;7.60;99.90
46091;DHT22;31826;53.572;10.170;2024-02-28T15:10:05;7.60;99.90
46091;DHT22;31826;53.572;10.170;2024-02-28T15:12:31;7.50;99.90
46091;DHT22;31826;53.572;10.170;2024-02-28T15:15:03;7.60;99.90
46091;DHT22;31826;53.572;10.170;2024-02-28T15:17:30;7.50;99.90
46091;DHT22;31826;53.572;10.170;2024-02-28T15:19:57;7.50;99.90
46091;DHT22;31826;53.572;10.170;2024-02-28T15:22:23;7.40;99.90
46091;DHT22;31826;53.572;10.170;2024-02-28T15:24:49;7.30;99.90
46091;DHT22;31826;53.572;10.170;2024-02-28T15:27:14;7.40;99.90